Terminal Aerodrome Forecast
Issued by NWS Columbia, SC

Home | Current Version | Previous Version | Text Only | Print | Product List | Glossary On
Versions: 1 2 3 4 5 6 7 8 9 10 11 12 13 14 15 16 17 18 19 20 21 22 23 24 25 26 27
000
FTUS42 KCAE 211146
TAFCAE
TAF
KCAE 211146Z 2112/2212 VRB03KT 6SM BR OVC003
     FM211300 VRB03KT 4SM BR OVC003
      TEMPO 2113/2117 1SM -SHRA
     FM211700 16005KT 4SM -SHRA BR SCT004 OVC015
     FM220000 21005KT 2SM BR OVC006=

USA.gov is the U.S. government's official web portal to all federal, state and local government web resources and services.